PWSweather.com
Personal Weather Stations
Station Observations
KNJOAKLA6
Oakland, NJ 07436

Oakland, NJ 07436

Lat: 41.041, Lon: -74.231

Elevation: 280

Station Type: Davis VP 2

http://stratacolorado.com/oaknjwx/

Latest ConditionsUpdated 7:50:00 AM EDT Friday, Mar 27, 2015
Currently Today's Max Today's Min Today's Average
Temperature 36.1°F2.3°C 41.8°F5.4°C 35.8°F2.1°C 39.2°F4.0°C
Dew Point 34.5°F1.4°C 40.5°F4.7°C 34.2°F1.2°C 37.7°F3.2°C
Winds 3.0 mph E4.8 kmh E 5.0 mph NNW8.0 kmh NNW - 0.8 mph 1.3 kmh
Wind Gusts 5.0 mph8.0 kmh 14.0 mph22.5 kmh - -
Humidity 94% 95% 93% 94%
Pressure 29.73 in1006.8 mb 29.75 in1007.5 mb 29.66 in1004.4 mb -
Precipitation - 0.56 in14.2 mm - -
Hour Temp Dew Point Humidity Winds Wind Gusts Pressure Precip Precip Rate Daily Precip Total
07:50 AM 36.1°F2.3°C 34.5°F1.4°C 94% 3.0 mph E4.8 kmh E 5.0 mph8.0 kmh 29.73 in1006.8 mb 0.01 in0.3 mm 0.00 in0.0 mm 0.56 in14.2 mm
07:40 AM 35.9°F2.2°C 34.3°F1.3°C 94% Calm Calm 3.0 mph4.8 kmh 29.74 in1007.1 mb 0.06 in1.5 mm 0.00 in0.0 mm 0.56 in14.2 mm
07:30 AM 35.9°F2.2°C 34.3°F1.3°C 94% Calm Calm 3.0 mph4.8 kmh 29.74 in1007.1 mb 0.10 in2.5 mm 0.00 in0.0 mm 0.56 in14.2 mm
07:20 AM 35.8°F2.1°C 34.2°F1.2°C 94% Calm Calm 3.0 mph4.8 kmh 29.73 in1006.8 mb 0.12 in3.0 mm 0.00 in0.0 mm 0.56 in14.2 mm
07:10 AM 35.8°F2.1°C 34.2°F1.2°C 94% Calm Calm 6.0 mph9.7 kmh 29.73 in1006.8 mb 0.14 in3.6 mm 0.00 in0.0 mm 0.56 in14.2 mm
07:00 AM 35.9°F2.2°C 34.3°F1.3°C 94% 2.0 mph NNE3.2 kmh NNE 5.0 mph8.0 kmh 29.74 in1007.1 mb 0.17 in4.3 mm 0.01 in0.3 mm 0.56 in14.2 mm
06:50 AM 36.1°F2.3°C 34.5°F1.4°C 94% 1.0 mph E1.6 kmh E 9.0 mph14.5 kmh 29.74 in1007.1 mb 0.16 in4.1 mm 0.18 in4.6 mm 0.54 in13.7 mm
06:40 AM 36.3°F2.4°C 34.5°F1.4°C 93% 1.0 mph N1.6 kmh N 12.0 mph19.3 kmh 29.74 in1007.1 mb 0.13 in3.3 mm 0.12 in3.0 mm 0.50 in12.7 mm
06:30 AM 36.5°F2.5°C 34.7°F1.5°C 93% 2.0 mph NE3.2 kmh NE 13.0 mph20.9 kmh 29.74 in1007.1 mb 0.11 in2.8 mm 0.00 in0.0 mm 0.46 in11.7 mm
06:20 AM 36.7°F2.6°C 35.1°F1.7°C 94% 4.0 mph N6.4 kmh N 14.0 mph22.5 kmh 29.74 in1007.1 mb 0.11 in2.8 mm 0.00 in0.0 mm 0.44 in11.2 mm
06:10 AM 37.0°F2.8°C 35.4°F1.9°C 94% Calm Calm 9.0 mph14.5 kmh 29.73 in1006.8 mb 0.12 in3.0 mm 0.00 in0.0 mm 0.42 in10.7 mm
06:00 AM 37.3°F2.9°C 35.7°F2.1°C 94% Calm Calm 6.0 mph9.7 kmh 29.74 in1007.1 mb 0.13 in3.3 mm 0.00 in0.0 mm 0.39 in9.9 mm
05:50 AM 37.5°F3.1°C 35.9°F2.2°C 94% Calm Calm 5.0 mph8.0 kmh 29.75 in1007.5 mb 0.17 in4.3 mm 0.00 in0.0 mm 0.38 in9.7 mm
05:40 AM 37.7°F3.2°C 36.1°F2.3°C 94% 1.0 mph NNE1.6 kmh NNE 6.0 mph9.7 kmh 29.75 in1007.5 mb 0.18 in4.6 mm 0.00 in0.0 mm 0.37 in9.4 mm
05:30 AM 37.9°F3.3°C 36.3°F2.4°C 94% 1.0 mph NW1.6 kmh NW 10.0 mph16.1 kmh 29.74 in1007.1 mb 0.21 in5.3 mm 0.00 in0.0 mm 0.35 in8.9 mm
05:20 AM 38.1°F3.4°C 36.5°F2.5°C 94% 3.0 mph NW4.8 kmh NW 13.0 mph20.9 kmh 29.74 in1007.1 mb 0.22 in5.6 mm 0.20 in5.1 mm 0.33 in8.4 mm
05:11 AM 38.3°F3.5°C 36.7°F2.6°C 94% 3.0 mph N4.8 kmh N 9.0 mph14.5 kmh 29.73 in1006.8 mb 0.19 in4.8 mm 0.22 in5.6 mm 0.30 in7.6 mm
05:00 AM 38.5°F3.6°C 36.9°F2.7°C 94% Calm Calm 9.0 mph14.5 kmh 29.73 in1006.8 mb 0.15 in3.8 mm 0.02 in0.5 mm 0.25 in6.4 mm
04:50 AM 38.6°F3.7°C 37.0°F2.8°C 94% 1.0 mph SW1.6 kmh SW 6.0 mph9.7 kmh 29.73 in1006.8 mb 0.13 in3.3 mm 0.06 in1.5 mm 0.21 in5.3 mm
04:40 AM 38.8°F3.8°C 37.2°F2.9°C 94% 2.0 mph N3.2 kmh N 5.0 mph8.0 kmh 29.71 in1006.1 mb 0.12 in3.0 mm 0.30 in7.6 mm 0.19 in4.8 mm
04:30 AM 39.1°F3.9°C 37.5°F3.1°C 94% Calm Calm 5.0 mph8.0 kmh 29.71 in1006.1 mb 0.07 in1.8 mm 0.00 in0.0 mm 0.13 in3.3 mm
04:20 AM 39.3°F4.1°C 37.7°F3.2°C 94% Calm Calm 1.0 mph1.6 kmh 29.71 in1006.1 mb 0.07 in1.8 mm 0.00 in0.0 mm 0.11 in2.8 mm
04:10 AM 39.4°F4.1°C 37.8°F3.2°C 94% Calm Calm 2.0 mph3.2 kmh 29.72 in1006.4 mb 0.08 in2.0 mm 0.06 in1.5 mm 0.11 in2.8 mm
04:00 AM 39.5°F4.2°C 37.9°F3.3°C 94% Calm Calm 2.0 mph3.2 kmh 29.71 in1006.1 mb 0.07 in1.8 mm 0.00 in0.0 mm 0.09 in2.3 mm
03:50 AM 39.7°F4.3°C 38.4°F3.6°C 95% Calm Calm 3.0 mph4.8 kmh 29.70 in1005.8 mb 0.07 in1.8 mm 0.06 in1.5 mm 0.08 in2.0 mm
03:40 AM 39.8°F4.3°C 38.2°F3.4°C 94% Calm Calm 3.0 mph4.8 kmh 29.71 in1006.1 mb 0.06 in1.5 mm 0.06 in1.5 mm 0.07 in1.8 mm
03:30 AM 40.0°F4.4°C 38.4°F3.6°C 94% Calm Calm 13.0 mph20.9 kmh 29.70 in1005.8 mb 0.05 in1.3 mm 0.12 in3.0 mm 0.06 in1.5 mm
03:20 AM 40.3°F4.6°C 39.0°F3.9°C 95% 2.0 mph NE3.2 kmh NE 9.0 mph14.5 kmh 29.69 in1005.4 mb 0.03 in0.8 mm 0.06 in1.5 mm 0.04 in1.0 mm
03:10 AM 40.5°F4.7°C 39.2°F4.0°C 95% 5.0 mph NNW8.0 kmh NNW 11.0 mph17.7 kmh 29.69 in1005.4 mb 0.02 in0.5 mm 0.06 in1.5 mm 0.03 in0.8 mm
03:00 AM 40.7°F4.8°C 39.4°F4.1°C 95% 2.0 mph W3.2 kmh W 9.0 mph14.5 kmh 29.69 in1005.4 mb 0.01 in0.3 mm 0.01 in0.3 mm 0.02 in0.5 mm
02:50 AM 40.8°F4.9°C 39.5°F4.2°C 95% Calm Calm 3.0 mph4.8 kmh 29.69 in1005.4 mb 0.00 in0.0 mm 0.00 in0.0 mm 0.01 in0.3 mm
02:40 AM 40.9°F4.9°C 39.6°F4.2°C 95% 1.0 mph NNW1.6 kmh NNW 5.0 mph8.0 kmh 29.68 in1005.1 mb 0.00 in0.0 mm 0.00 in0.0 mm 0.01 in0.3 mm
02:30 AM 40.9°F4.9°C 39.6°F4.2°C 95% Calm Calm 4.0 mph6.4 kmh 29.69 in1005.4 mb 0.00 in0.0 mm 0.00 in0.0 mm 0.01 in0.3 mm
02:20 AM 40.9°F4.9°C 39.6°F4.2°C 95% 1.0 mph NW1.6 kmh NW 6.0 mph9.7 kmh 29.70 in1005.8 mb 0.00 in0.0 mm 0.00 in0.0 mm 0.01 in0.3 mm
02:10 AM 40.9°F4.9°C 39.6°F4.2°C 95% Calm Calm 2.0 mph3.2 kmh 29.69 in1005.4 mb 0.00 in0.0 mm 0.00 in0.0 mm 0.01 in0.3 mm
02:00 AM 40.9°F4.9°C 39.6°F4.2°C 95% 1.0 mph WSW1.6 kmh WSW 6.0 mph9.7 kmh 29.69 in1005.4 mb 0.00 in0.0 mm 0.00 in0.0 mm 0.01 in0.3 mm
01:50 AM 40.9°F4.9°C 39.6°F4.2°C 95% Calm Calm -- 29.69 in1005.4 mb 0.00 in0.0 mm 0.00 in0.0 mm 0.01 in0.3 mm
01:40 AM 40.9°F4.9°C 39.6°F4.2°C 95% 2.0 mph WSW3.2 kmh WSW 5.0 mph8.0 kmh 29.68 in1005.1 mb 0.00 in0.0 mm 0.00 in0.0 mm 0.01 in0.3 mm
01:30 AM 41.0°F5.0°C 39.7°F4.3°C 95% Calm Calm -- 29.68 in1005.1 mb 0.01 in0.3 mm 0.00 in0.0 mm 0.01 in0.3 mm
01:20 AM 41.0°F5.0°C 39.7°F4.3°C 95% Calm Calm 4.0 mph6.4 kmh 29.68 in1005.1 mb 0.01 in0.3 mm 0.00 in0.0 mm 0.01 in0.3 mm
01:10 AM 41.1°F5.1°C 39.8°F4.3°C 95% Calm Calm 5.0 mph8.0 kmh 29.66 in1004.4 mb 0.01 in0.3 mm 0.00 in0.0 mm 0.01 in0.3 mm
01:00 AM 41.2°F5.1°C 39.9°F4.4°C 95% Calm Calm 1.0 mph1.6 kmh 29.67 in1004.7 mb 0.01 in0.3 mm 0.00 in0.0 mm 0.01 in0.3 mm
12:50 AM 41.3°F5.2°C 40.0°F4.4°C 95% Calm Calm 3.0 mph4.8 kmh 29.67 in1004.7 mb 0.01 in0.3 mm 0.00 in0.0 mm 0.01 in0.3 mm
12:40 AM 41.4°F5.2°C 40.1°F4.5°C 95% Calm Calm 2.0 mph3.2 kmh 29.67 in1004.7 mb 0.01 in0.3 mm 0.06 in1.5 mm 0.01 in0.3 mm
12:30 AM 41.5°F5.3°C 40.2°F4.6°C 95% Calm Calm 1.0 mph1.6 kmh 29.66 in1004.4 mb 0.00 in0.0 mm 0.00 in0.0 mm 0.01 in0.3 mm
12:20 AM 41.5°F5.3°C 40.2°F4.6°C 95% Calm Calm 9.0 mph14.5 kmh 29.66 in1004.4 mb 0.00 in0.0 mm 0.00 in0.0 mm 0.01 in0.3 mm
12:10 AM 41.6°F5.3°C 40.3°F4.6°C 95% 1.0 mph NE1.6 kmh NE 6.0 mph9.7 kmh 29.66 in1004.4 mb 0.00 in0.0 mm 0.00 in0.0 mm 0.01 in0.3 mm
12:00 AM 41.8°F5.4°C 40.5°F4.7°C 95% 1.0 mph N1.6 kmh N 7.0 mph11.3 kmh 29.66 in1004.4 mb 0.01 in0.3 mm 0.00 in0.0 mm 0.53 in13.5 mm